Terminal Aerodrome Forecast
Issued by NWS Central Illinois

Home | Current Version | Previous Version | Text Only | Print | Product List | Glossary On
Versions: 1 2 3 4 5 6 7 8 9 10 11 12 13 14 15 16 17 18 19 20 21 22
000
FTUS43 KILX 170800 AAA
TAFPIA
TAF AMD
KPIA 170850Z 1709/1806 18010KT P6SM SCT120 BKN250 WS020/21045KT
     FM171400 25009KT P6SM SCT040 OVC120
     FM172000 25007KT P6SM OVC070
     FM180200 VRB03KT P6SM OVC050=

USA.gov is the U.S. government's official web portal to all federal, state and local government web resources and services.